Time;durP1;ratioP1;P1;durP2;ratioP2;P2;SDS_P1;SDS_P2;PMS_P1;PMS_P2;Temp;Humidity;BMP_temperature;BMP_pressure;BME280_temperature;BME280_humidity;BME280_pressure;Samples;Min_cycle;Max_cycle;Signal;HPM_P1;HPM_P2
2022/09/08 00:01:16;;;;;;;8.30;4.05;;;14.80;99.90;;;;;;5004393;28;20022;-85
2022/09/08 00:03:43;;;;;;;12.07;4.65;;;14.70;99.90;;;;;;4995554;28;20690;-84
2022/09/08 00:06:12;;;;;;;10.07;5.25;;;14.70;99.90;;;;;;4994303;28;20022;-85
2022/09/08 00:08:39;;;;;;;13.88;5.18;;;14.70;99.90;;;;;;4994356;28;20068;-86
2022/09/08 00:11:06;;;;;;;13.60;5.88;;;14.60;99.90;;;;;;4978401;28;20087;-86
2022/09/08 00:13:37;;;;;;;19.67;6.35;;;14.70;99.90;;;;;;4993981;28;20104;-85
2022/09/08 00:16:07;;;;;;;14.73;6.03;;;14.60;99.90;;;;;;4995476;28;20093;-86
2022/09/08 00:18:34;;;;;;;21.88;6.38;;;14.50;99.90;;;;;;4994755;28;20042;-86
2022/09/08 00:21:00;;;;;;;11.07;6.60;;;14.50;99.90;;;;;;4994471;28;20022;-87
2022/09/08 00:23:26;;;;;;;13.18;7.47;;;14.60;99.90;;;;;;4994893;28;20125;-86
2022/09/08 00:25:52;;;;;;;11.45;8.27;;;14.60;99.90;;;;;;4991219;28;20061;-86
2022/09/08 00:28:17;;;;;;;9.40;7.32;;;14.60;99.90;;;;;;4995870;28;20022;-87
2022/09/08 00:30:43;;;;;;;10.38;7.53;;;14.50;99.90;;;;;;4992195;28;20030;-87
2022/09/08 00:33:09;;;;;;;10.05;7.68;;;14.50;99.90;;;;;;5000191;28;20069;-87
2022/09/08 00:35:34;;;;;;;11.75;7.18;;;14.50;99.90;;;;;;4996126;28;20030;-87
2022/09/08 00:38:00;;;;;;;10.48;8.20;;;14.50;99.90;;;;;;4994654;28;20027;-87
2022/09/08 00:44:35;;;;;;;13.68;9.15;;;14.50;99.90;;;;;;4993441;28;20133;-88
2022/09/08 00:47:01;;;;;;;11.05;9.18;;;14.40;99.90;;;;;;4981121;28;20166;-87
2022/09/08 00:49:28;;;;;;;12.45;8.70;;;14.40;99.90;;;;;;4994777;28;20026;-88
2022/09/08 00:51:57;;;;;;;11.02;7.97;;;14.40;99.90;;;;;;4998966;28;20041;-87
2022/09/08 00:54:24;;;;;;;15.07;7.47;;;14.40;99.90;;;;;;4994213;28;20038;-87
2022/09/08 00:56:52;;;;;;;9.73;7.43;;;14.40;99.90;;;;;;5001151;28;20030;-87
2022/09/08 00:59:20;;;;;;;11.00;7.10;;;14.40;99.90;;;;;;4995412;28;20493;-86
2022/09/08 01:01:58;;;;;;;7.90;6.80;;;14.30;99.90;;;;;;4994098;28;20038;-87
2022/09/08 01:04:24;;;;;;;9.52;6.63;;;14.30;99.90;;;;;;4994392;28;20474;-87
2022/09/08 01:12:58;;;;;;;7.65;6.32;;;14.30;99.90;;;;;;4994135;28;20497;-87
2022/09/08 01:15:29;;;;;;;9.45;6.10;;;14.30;99.90;;;;;;4993878;28;20033;-87
2022/09/08 01:17:57;;;;;;;8.30;5.68;;;14.20;99.90;;;;;;4994031;28;20088;-87
2022/09/08 01:20:50;;;;;;;9.93;6.20;;;14.20;99.90;;;;;;4994007;28;20030;-87
2022/09/08 01:23:53;;;;;;;14.90;6.32;;;14.20;99.90;;;;;;4987607;28;20030;-88
2022/09/08 01:26:30;;;;;;;10.23;6.10;;;14.30;99.90;;;;;;4992521;28;20026;-87
2022/09/08 01:29:00;;;;;;;7.60;5.35;;;14.20;99.90;;;;;;4993889;28;20419;-87
2022/09/08 01:31:27;;;;;;;8.77;5.63;;;14.30;99.90;;;;;;4989010;28;20034;-88
2022/09/08 01:33:53;;;;;;;6.95;5.28;;;14.30;99.90;;;;;;4997751;28;20481;-88
2022/09/08 01:36:19;;;;;;;7.72;5.35;;;14.30;99.90;;;;;;4993894;28;20080;-88
2022/09/08 01:38:45;;;;;;;9.15;5.70;;;14.20;99.90;;;;;;4994173;28;20377;-88
2022/09/08 01:41:36;;;;;;;6.78;5.30;;;14.20;99.90;;;;;;4993592;28;20041;-87
2022/09/08 01:44:35;;;;;;;9.20;6.30;;;14.20;99.90;;;;;;4994485;28;20028;-88
2022/09/08 01:47:35;;;;;;;9.60;5.78;;;14.20;99.90;;;;;;4977119;28;20019;-87
2022/09/08 01:50:00;;;;;;;11.63;6.60;;;14.20;99.90;;;;;;4993114;28;20117;-88
2022/09/08 01:56:13;;;;;;;8.43;6.15;;;14.40;99.90;;;;;;4990540;28;20492;-88
2022/09/08 01:58:39;;;;;;;11.30;6.57;;;14.30;99.90;;;;;;4993235;28;20114;-88
2022/09/08 02:01:04;;;;;;;9.15;6.63;;;14.30;99.90;;;;;;4993649;28;20022;-88
2022/09/08 02:03:30;;;;;;;7.90;6.22;;;14.30;99.90;;;;;;5004987;28;20147;-88
2022/09/08 02:06:01;;;;;;;11.63;7.15;;;14.30;99.90;;;;;;4992883;28;20064;-87
2022/09/08 02:08:27;;;;;;;6.72;5.78;;;14.30;99.90;;;;;;4993502;28;20089;-88
2022/09/08 02:10:54;;;;;;;9.93;6.57;;;14.30;99.90;;;;;;4993588;28;20034;-88
2022/09/08 02:13:20;;;;;;;8.65;6.47;;;14.30;99.90;;;;;;4994430;28;20032;-88
2022/09/08 02:15:46;;;;;;;9.35;6.70;;;14.30;99.90;;;;;;4993081;28;20033;-87
2022/09/08 02:18:12;;;;;;;11.25;7.13;;;14.30;99.90;;;;;;4993107;28;20025;-86
2022/09/08 02:20:37;;;;;;;9.98;7.93;;;14.30;99.90;;;;;;4990859;28;20037;-86
2022/09/08 02:23:06;;;;;;;8.10;6.88;;;14.30;99.90;;;;;;4992420;28;20033;-86
2022/09/08 02:25:31;;;;;;;11.27;7.55;;;14.20;99.90;;;;;;4992604;28;20031;-87
2022/09/08 02:27:57;;;;;;;9.50;7.18;;;14.20;99.90;;;;;;4994956;28;20049;-87
2022/09/08 02:30:23;;;;;;;14.85;7.18;;;14.20;99.90;;;;;;4992991;28;20394;-87
2022/09/08 02:32:49;;;;;;;12.10;8.50;;;14.30;99.90;;;;;;5007413;28;20030;-89
2022/09/08 02:35:15;;;;;;;14.30;9.20;;;14.30;99.90;;;;;;4992988;28;20031;-88
2022/09/08 02:37:41;;;;;;;12.93;8.35;;;14.30;99.90;;;;;;4993305;28;20030;-89
2022/09/08 02:40:08;;;;;;;15.98;10.20;;;14.30;99.90;;;;;;5009816;28;20081;-88
2022/09/08 02:42:34;;;;;;;11.80;8.38;;;14.30;99.90;;;;;;4988464;28;20406;-88
2022/09/08 02:44:59;;;;;;;14.88;7.43;;;14.30;99.90;;;;;;4993308;28;20085;-89
2022/09/08 02:47:25;;;;;;;9.32;7.35;;;14.30;99.90;;;;;;4994916;28;20034;-88
2022/09/08 02:49:51;;;;;;;11.88;7.57;;;14.30;99.90;;;;;;4998841;28;20034;-88
2022/09/08 02:52:32;;;;;;;10.70;7.47;;;14.30;99.90;;;;;;4994011;28;20038;-88
2022/09/08 02:54:58;;;;;;;8.35;6.30;;;14.30;99.90;;;;;;4992840;28;20101;-88
2022/09/08 02:57:24;;;;;;;8.85;6.65;;;14.30;99.90;;;;;;4992857;28;20086;-88
2022/09/08 03:00:32;;;;;;;10.60;6.88;;;14.30;99.90;;;;;;4992584;28;20060;-86
2022/09/08 03:02:58;;;;;;;9.77;6.82;;;14.30;99.90;;;;;;4990013;28;20039;-87
2022/09/08 03:05:24;;;;;;;10.88;6.78;;;14.30;99.90;;;;;;4993585;28;20026;-87
2022/09/08 03:07:51;;;;;;;12.32;7.53;;;14.30;99.90;;;;;;4992541;28;20544;-87
2022/09/08 03:10:20;;;;;;;9.48;7.43;;;14.30;99.90;;;;;;4993000;28;20026;-87
2022/09/08 03:12:46;;;;;;;11.07;6.43;;;14.30;99.90;;;;;;4992249;28;20042;-87
2022/09/08 03:15:23;;;;;;;9.15;6.00;;;14.30;99.90;;;;;;4992389;28;20026;-87
2022/09/08 03:17:49;;;;;;;9.73;5.70;;;14.20;99.90;;;;;;4991862;28;20100;-87
2022/09/08 03:20:16;;;;;;;9.07;6.35;;;14.20;99.90;;;;;;4996107;28;20050;-87
2022/09/08 03:22:42;;;;;;;13.00;5.45;;;14.20;99.90;;;;;;4995787;28;20081;-87
2022/09/08 03:25:08;;;;;;;11.70;7.28;;;14.30;99.90;;;;;;4992766;28;20027;-88
2022/09/08 03:27:34;;;;;;;9.65;7.53;;;14.30;99.90;;;;;;4993412;28;20038;-88
2022/09/08 03:30:02;;;;;;;9.75;6.65;;;14.20;99.90;;;;;;4996274;28;20030;-88
2022/09/08 03:32:28;;;;;;;9.50;6.88;;;14.20;99.90;;;;;;4996031;28;20034;-88
2022/09/08 03:34:53;;;;;;;15.35;10.07;;;14.30;99.90;;;;;;4996349;28;20046;-88
2022/09/08 03:37:19;;;;;;;14.15;9.95;;;14.30;99.90;;;;;;5002895;28;20029;-89
2022/09/08 03:39:45;;;;;;;18.77;11.68;;;14.30;99.90;;;;;;4995683;28;20023;-88
2022/09/08 03:42:11;;;;;;;14.98;11.25;;;14.40;99.90;;;;;;4994167;28;20030;-88
2022/09/08 03:44:37;;;;;;;18.50;13.20;;;14.40;99.90;;;;;;5005920;28;20022;-88
2022/09/08 03:47:03;;;;;;;19.30;13.27;;;14.40;99.90;;;;;;4979373;28;20041;-88
2022/09/08 03:49:46;;;;;;;20.45;13.15;;;14.40;99.90;;;;;;4995757;28;20035;-88
2022/09/08 03:52:12;;;;;;;20.73;13.82;;;14.40;99.90;;;;;;4992102;28;20041;-88
2022/09/08 03:54:50;;;;;;;20.25;14.90;;;14.50;99.90;;;;;;4992750;28;20125;-88
2022/09/08 03:57:19;;;;;;;18.60;14.13;;;14.50;99.90;;;;;;4994661;28;20029;-88
2022/09/08 03:59:44;;;;;;;20.52;14.20;;;14.50;99.90;;;;;;5002052;28;20029;-88
2022/09/08 04:02:10;;;;;;;24.40;15.43;;;14.50;99.90;;;;;;5007575;28;20034;-87
2022/09/08 04:04:36;;;;;;;21.13;14.85;;;14.50;99.90;;;;;;4995066;28;20034;-86
2022/09/08 04:07:03;;;;;;;21.42;13.82;;;14.40;99.90;;;;;;4994679;28;20031;-86
2022/09/08 04:09:29;;;;;;;21.85;13.00;;;14.40;99.90;;;;;;4995943;28;20033;-86
2022/09/08 04:11:54;;;;;;;16.23;11.15;;;14.40;99.90;;;;;;4994709;28;20113;-86
2022/09/08 04:14:20;;;;;;;17.35;11.73;;;14.40;99.90;;;;;;4992257;28;20029;-86
2022/09/08 04:16:46;;;;;;;19.02;12.30;;;14.30;99.90;;;;;;4994691;28;20027;-86
2022/09/08 04:19:12;;;;;;;15.18;11.27;;;14.30;99.90;;;;;;4995720;28;20026;-86
2022/09/08 04:21:38;;;;;;;14.93;11.25;;;14.30;99.90;;;;;;4994363;28;20486;-86
2022/09/08 04:24:04;;;;;;;14.63;11.30;;;14.30;99.90;;;;;;4993645;28;20026;-85
2022/09/08 04:26:48;;;;;;;16.27;11.23;;;14.40;99.90;;;;;;4993959;28;20060;-85
2022/09/08 04:29:15;;;;;;;16.02;11.02;;;14.30;99.90;;;;;;4976955;28;20034;-86
2022/09/08 04:31:42;;;;;;;17.27;11.27;;;14.30;99.90;;;;;;4994491;28;20072;-86
2022/09/08 04:34:08;;;;;;;15.52;12.20;;;14.40;99.90;;;;;;4993535;28;20034;-85
2022/09/08 04:36:34;;;;;;;19.05;11.85;;;14.40;99.90;;;;;;4993610;28;20022;-84
2022/09/08 04:39:00;;;;;;;19.55;12.75;;;14.30;99.90;;;;;;4977192;28;20070;-83
2022/09/08 04:41:29;;;;;;;17.05;12.70;;;14.40;99.90;;;;;;4987750;28;20034;-84
2022/09/08 04:43:56;;;;;;;18.83;10.77;;;14.40;99.90;;;;;;4992452;28;20034;-85
2022/09/08 04:46:22;;;;;;;19.63;11.63;;;14.40;99.90;;;;;;4993929;28;20124;-85
2022/09/08 04:48:48;;;;;;;25.80;12.57;;;14.50;99.90;;;;;;4981825;28;20080;-84
2022/09/08 04:51:17;;;;;;;17.83;11.27;;;14.60;99.90;;;;;;4984959;28;20029;-87
2022/09/08 04:53:43;;;;;;;16.92;12.02;;;14.60;99.90;;;;;;4991725;28;20035;-87
2022/09/08 04:59:56;;;;;;;22.98;13.35;;;14.70;99.90;;;;;;4995704;28;20061;-87
2022/09/08 05:02:21;;;;;;;20.30;14.32;;;14.70;99.90;;;;;;4993929;28;20039;-87
2022/09/08 05:04:47;;;;;;;19.02;13.43;;;14.70;99.90;;;;;;4994696;28;20035;-87
2022/09/08 05:07:13;;;;;;;23.55;14.38;;;14.70;99.90;;;;;;4993621;28;20108;-87
2022/09/08 05:09:38;;;;;;;19.55;13.80;;;14.70;99.90;;;;;;4993724;28;20482;-87
2022/09/08 05:12:04;;;;;;;24.63;14.20;;;14.70;99.90;;;;;;4977282;28;20038;-87
2022/09/08 05:14:30;;;;;;;23.92;14.75;;;14.80;99.90;;;;;;4993549;28;20022;-87
2022/09/08 05:16:55;;;;;;;27.48;16.48;;;14.80;99.90;;;;;;4998636;28;20033;-87
2022/09/08 05:19:21;;;;;;;27.70;16.60;;;14.80;99.90;;;;;;4983043;28;20037;-87
2022/09/08 05:21:47;;;;;;;29.80;17.52;;;14.80;99.90;;;;;;4989821;28;20372;-87
2022/09/08 05:24:12;;;;;;;29.85;18.45;;;14.80;99.90;;;;;;5002444;28;20393;-87
2022/09/08 05:26:38;;;;;;;30.35;18.60;;;14.80;99.90;;;;;;4988123;28;20504;-87
2022/09/08 05:29:04;;;;;;;33.83;19.02;;;14.80;99.90;;;;;;4994520;28;20493;-87
2022/09/08 05:31:31;;;;;;;34.55;21.67;;;14.80;99.90;;;;;;4980775;28;20028;-87
2022/09/08 05:33:58;;;;;;;40.42;21.75;;;14.80;99.90;;;;;;4989712;28;20040;-87
2022/09/08 05:36:30;;;;;;;30.40;20.88;;;14.80;99.90;;;;;;4970774;28;20397;-87
2022/09/08 05:38:56;;;;;;;;;;;14.80;99.90;;;;;;4990732;28;20466;-87
2022/09/08 05:41:23;;;;;;;47.60;23.98;;;14.80;99.90;;;;;;4983978;28;19917;-87
2022/09/08 05:43:56;;;;;;;36.65;25.65;;;14.80;99.90;;;;;;4995757;28;20105;-87
2022/09/08 05:46:25;;;;;;;39.63;25.13;;;14.90;99.90;;;;;;4987191;28;20122;-87
2022/09/08 05:48:52;;;;;;;37.47;24.08;;;14.90;99.90;;;;;;4996867;28;20054;-87
2022/09/08 05:51:19;;;;;;;36.65;23.50;;;14.90;99.90;;;;;;4992362;28;20081;-87
2022/09/08 05:53:46;;;;;;;26.98;21.08;;;14.90;99.90;;;;;;4982295;28;20128;-87
2022/09/08 05:56:12;;;;;;;31.27;23.13;;;14.90;99.90;;;;;;4987923;28;20034;-86
2022/09/08 05:58:38;;;;;;;29.92;20.73;;;14.90;99.90;;;;;;4990413;28;20053;-87
2022/09/08 06:01:10;;;;;;;31.55;21.17;;;14.90;99.90;;;;;;4991830;28;20462;-87
2022/09/08 06:03:37;;;;;;;26.50;19.85;;;15.00;99.90;;;;;;5007986;28;20121;-87
2022/09/08 06:06:07;;;;;;;27.77;19.25;;;14.90;99.90;;;;;;4992564;28;20054;-87
2022/09/08 06:08:33;;;;;;;26.13;18.52;;;15.00;99.90;;;;;;4980223;28;20036;-87
2022/09/08 06:10:59;;;;;;;25.10;18.15;;;15.00;99.90;;;;;;4975566;28;20397;-88
2022/09/08 06:13:26;;;;;;;24.38;18.02;;;15.00;99.90;;;;;;5006043;28;20030;-87
2022/09/08 06:15:52;;;;;;;29.48;18.63;;;15.00;99.90;;;;;;4975250;28;20029;-87
2022/09/08 06:18:18;;;;;;;27.83;19.58;;;15.00;99.90;;;;;;4972950;28;20470;-86
2022/09/08 06:20:45;;;;;;;26.42;19.35;;;14.90;99.90;;;;;;4987283;28;20485;-87
2022/09/08 06:23:12;;;;;;;27.27;20.08;;;14.90;99.90;;;;;;4978504;28;20034;-87
2022/09/08 06:25:44;;;;;;;27.13;21.55;;;14.80;99.90;;;;;;4988361;28;20533;-88
2022/09/08 06:28:19;;;;;;;24.92;19.40;;;14.80;99.90;;;;;;4977938;28;20034;-87
2022/09/08 06:30:50;;;;;;;24.90;18.55;;;14.70;99.90;;;;;;4974950;28;20041;-88
2022/09/08 06:33:23;;;;;;;19.48;17.27;;;14.70;99.90;;;;;;4990652;28;20026;-87
2022/09/08 06:36:19;;;;;;;19.65;15.75;;;14.70;99.90;;;;;;4991222;28;20112;-87
2022/09/08 06:39:00;;;;;;;14.02;11.85;;;14.70;99.90;;;;;;4984182;28;20153;-87
2022/09/08 06:41:33;;;;;;;13.43;10.60;;;14.60;99.90;;;;;;4991227;28;20030;-87
2022/09/08 06:44:08;;;;;;;13.63;10.70;;;14.60;99.90;;;;;;4990414;28;20042;-86
2022/09/08 06:46:39;;;;;;;18.52;11.30;;;14.50;99.90;;;;;;4988530;28;20039;-88
2022/09/08 06:49:05;;;;;;;9.35;8.00;;;14.60;99.90;;;;;;4991498;28;20057;-87
2022/09/08 06:51:58;;;;;;;9.82;8.40;;;14.50;99.90;;;;;;4991097;28;20034;-87
2022/09/08 06:54:43;;;;;;;9.05;6.53;;;14.40;99.90;;;;;;4975181;28;20053;-87
2022/09/08 06:57:30;;;;;;;8.50;5.68;;;14.30;99.90;;;;;;4978636;28;20073;-87
2022/09/08 07:00:11;;;;;;;7.90;5.45;;;14.30;99.90;;;;;;4976126;28;20026;-87
2022/09/08 07:02:42;;;;;;;6.50;5.40;;;14.30;99.90;;;;;;4993592;28;20034;-88
2022/09/08 07:05:34;;;;;;;9.27;4.63;;;14.30;99.90;;;;;;4979725;28;20034;-88
2022/09/08 07:08:40;;;;;;;5.85;4.47;;;14.30;99.90;;;;;;5000258;28;20034;-88
2022/09/08 07:11:44;;;;;;;4.20;3.80;;;14.30;99.90;;;;;;4922800;29;20044;-88
2022/09/08 07:14:41;;;;;;;5.72;4.20;;;14.40;99.90;;;;;;4919151;29;20055;-88
2022/09/08 07:17:31;;;;;;;7.18;3.97;;;14.40;99.90;;;;;;4991165;28;20034;-88
2022/09/08 07:19:57;;;;;;;7.68;3.83;;;14.40;99.90;;;;;;4995241;28;20041;-87
2022/09/08 07:22:32;;;;;;;4.50;3.85;;;14.40;99.90;;;;;;4995247;28;20045;-88
2022/09/08 07:25:18;;;;;;;7.78;4.68;;;14.50;99.90;;;;;;4984205;28;20041;-88
2022/09/08 07:27:48;;;;;;;5.15;4.15;;;14.50;99.90;;;;;;4991903;28;20041;-87
2022/09/08 07:30:18;;;;;;;7.32;4.35;;;14.50;99.90;;;;;;4995580;28;20030;-87
2022/09/08 07:32:49;;;;;;;7.60;4.85;;;14.50;99.90;;;;;;4994964;28;20037;-88
2022/09/08 07:35:25;;;;;;;;;;;14.50;99.90;;;;;;4995381;28;20037;-87
2022/09/08 07:37:54;;;;;;;8.85;6.53;;;14.50;99.90;;;;;;4995189;28;20016;-87
2022/09/08 07:40:43;;;;;;;7.18;5.82;;;14.60;99.90;;;;;;4994701;28;20058;-87
2022/09/08 07:43:14;;;;;;;10.10;6.88;;;14.40;99.90;;;;;;4994656;28;20033;-88
2022/09/08 07:45:42;;;;;;;6.70;5.70;;;14.30;99.90;;;;;;4996862;28;20034;-87
2022/09/08 07:48:30;;;;;;;6.32;4.85;;;14.30;99.90;;;;;;4978484;28;20121;-87
2022/09/08 07:51:16;;;;;;;5.70;5.00;;;14.30;99.90;;;;;;5009211;28;20034;-87
2022/09/08 07:54:07;;;;;;;6.88;4.68;;;14.20;99.90;;;;;;4997499;28;20034;-87
2022/09/08 07:56:41;;;;;;;5.95;4.10;;;14.20;99.90;;;;;;4989257;28;20121;-86
2022/09/08 07:59:11;;;;;;;8.07;4.55;;;14.30;99.90;;;;;;4994258;28;20073;-87
2022/09/08 08:01:55;;;;;;;8.40;4.90;;;14.30;99.90;;;;;;4994547;28;20129;-87
2022/09/08 08:04:50;;;;;;;5.18;4.35;;;14.30;99.90;;;;;;4976728;28;20027;-86
2022/09/08 08:07:43;;;;;;;6.15;4.80;;;14.30;99.90;;;;;;4976174;28;20038;-86
2022/09/08 08:10:25;;;;;;;7.60;3.90;;;14.40;99.90;;;;;;4990125;28;20085;-87
2022/09/08 08:13:02;;;;;;;4.55;4.05;;;14.60;99.90;;;;;;4992460;28;20390;-86
2022/09/08 08:16:00;;;;;;;12.73;4.13;;;14.60;99.90;;;;;;4996456;28;20088;-86
2022/09/08 08:18:58;;;;;;;7.90;4.05;;;14.50;99.90;;;;;;4972724;28;20049;-87
2022/09/08 08:21:50;;;;;;;5.55;3.97;;;14.60;99.90;;;;;;4993953;28;20125;-87
2022/09/08 08:24:41;;;;;;;5.13;3.78;;;14.60;99.90;;;;;;4959185;28;20069;-87
2022/09/08 08:27:25;;;;;;;8.40;2.97;;;15.00;99.90;;;;;;4979740;28;20481;-87
2022/09/08 08:30:00;;;;;;;4.45;3.30;;;15.40;99.90;;;;;;4976925;28;20117;-86
2022/09/08 08:32:29;;;;;;;5.07;2.65;;;15.30;99.90;;;;;;4971710;28;20042;-86
2022/09/08 08:35:07;;;;;;;3.67;2.70;;;15.20;99.90;;;;;;4993131;28;20053;-86
2022/09/08 08:37:36;;;;;;;3.95;2.85;;;15.40;99.90;;;;;;4993445;28;20565;-86
2022/09/08 08:40:26;;;;;;;5.88;3.75;;;15.60;99.90;;;;;;4993495;28;20022;-86
2022/09/08 08:43:11;;;;;;;3.95;2.58;;;15.70;99.90;;;;;;4995006;28;20030;-86
2022/09/08 08:45:39;;;;;;;9.50;3.25;;;15.70;99.90;;;;;;4973880;28;20039;-84
2022/09/08 08:48:33;;;;;;;2.95;2.33;;;15.50;99.90;;;;;;4977046;28;20529;-85
2022/09/08 08:51:21;;;;;;;5.28;2.58;;;15.50;99.90;;;;;;4976940;28;20121;-85
2022/09/08 08:54:18;;;;;;;5.25;2.70;;;15.40;99.90;;;;;;4975318;28;20041;-85
2022/09/08 08:56:44;;;;;;;5.72;2.75;;;15.30;99.90;;;;;;4982102;28;20061;-85
2022/09/08 08:59:16;;;;;;;3.30;2.60;;;15.20;99.90;;;;;;4987101;28;20466;-87
2022/09/08 09:01:47;;;;;;;4.63;2.50;;;15.20;99.90;;;;;;4993881;28;20037;-85
2022/09/08 09:04:13;;;;;;;3.75;3.00;;;15.20;99.90;;;;;;4992871;28;20065;-85
2022/09/08 09:06:50;;;;;;;4.35;2.95;;;15.20;99.90;;;;;;4976278;28;20064;-85
2022/09/08 09:09:25;;;;;;;6.50;2.97;;;15.00;99.90;;;;;;4987953;28;20037;-85
2022/09/08 09:12:06;;;;;;;3.75;2.67;;;15.00;99.90;;;;;;4999718;28;20035;-85
2022/09/08 09:14:38;;;;;;;5.05;2.72;;;15.10;99.90;;;;;;4990768;28;20038;-85
2022/09/08 09:17:22;;;;;;;5.55;2.30;;;15.10;99.90;;;;;;4978309;28;20116;-85
2022/09/08 09:20:21;;;;;;;7.68;2.90;;;15.20;99.90;;;;;;4976256;28;20034;-85
2022/09/08 09:23:13;;;;;;;6.82;2.90;;;15.40;99.90;;;;;;4990328;28;20045;-86
2022/09/08 09:26:12;;;;;;;4.95;2.20;;;15.40;99.90;;;;;;4992266;28;20030;-84
2022/09/08 09:28:54;;;;;;;3.42;2.60;;;15.80;99.90;;;;;;4972176;28;20078;-85
2022/09/08 09:32:04;;;;;;;4.38;2.53;;;16.10;99.90;;;;;;4975479;28;20364;-85
2022/09/08 09:34:30;;;;;;;3.28;2.13;;;16.10;99.90;;;;;;5007438;28;20038;-85
2022/09/08 09:37:25;;;;;;;2.83;1.95;;;16.00;99.90;;;;;;4993481;28;20037;-85
2022/09/08 09:39:56;;;;;;;5.40;1.88;;;16.20;99.90;;;;;;4946391;28;20624;-85
2022/09/08 09:42:26;;;;;;;4.22;2.10;;;16.60;99.90;;;;;;4991616;28;20504;-85
2022/09/08 09:45:24;;;;;;;2.67;1.98;;;16.60;99.90;;;;;;5006917;28;20794;-85
2022/09/08 09:48:12;;;;;;;3.78;1.95;;;16.60;99.90;;;;;;4999198;28;20394;-85
2022/09/08 09:50:56;;;;;;;3.40;1.70;;;16.90;99.90;;;;;;4973687;28;20031;-85
2022/09/08 09:53:48;;;;;;;3.92;2.20;;;16.80;99.90;;;;;;4974077;28;20031;-85
2022/09/08 09:56:36;;;;;;;3.30;1.67;;;16.70;99.90;;;;;;4991651;28;20501;-84
2022/09/08 09:59:08;;;;;;;2.13;1.80;;;16.90;99.90;;;;;;4989719;28;20033;-85
2022/09/08 10:01:36;;;;;;;4.50;1.70;;;17.00;99.90;;;;;;4987985;28;20386;-85
2022/09/08 10:04:19;;;;;;;3.55;1.80;;;17.60;99.90;;;;;;4991525;28;20026;-85
2022/09/08 10:07:23;;;;;;;8.27;2.00;;;17.70;99.90;;;;;;4985093;28;20096;-85
2022/09/08 10:10:07;;;;;;;2.45;1.50;;;17.70;99.90;;;;;;4987259;28;20027;-84
2022/09/08 10:12:57;;;;;;;3.65;1.42;;;18.20;99.90;;;;;;4985365;28;20088;-85
2022/09/08 10:15:38;;;;;;;1.90;1.60;;;18.50;99.90;;;;;;4987265;28;20033;-84
2022/09/08 10:18:26;;;;;;;1.85;1.52;;;18.00;99.90;;;;;;4998016;28;20033;-84
2022/09/08 10:21:04;;;;;;;3.50;1.95;;;17.50;99.90;;;;;;4973518;28;20018;-84
2022/09/08 10:23:48;;;;;;;5.13;2.20;;;17.30;99.90;;;;;;4991227;28;20053;-84
2022/09/08 10:26:37;;;;;;;3.75;1.88;;;16.90;99.90;;;;;;4991346;28;20034;-84
2022/09/08 10:29:27;;;;;;;4.18;1.83;;;16.80;99.90;;;;;;5005683;28;20030;-84
2022/09/08 10:31:56;;;;;;;4.30;1.65;;;16.50;99.90;;;;;;4990462;28;20114;-85
2022/09/08 10:34:53;;;;;;;3.85;2.15;;;16.40;99.90;;;;;;4976044;28;20037;-84
2022/09/08 10:37:28;;;;;;;5.13;1.88;;;16.10;99.90;;;;;;4990024;28;20023;-84
2022/09/08 10:40:15;;;;;;;4.80;2.17;;;16.10;99.90;;;;;;4991758;28;20544;-84
2022/09/08 10:42:44;;;;;;;4.57;2.15;;;16.40;99.90;;;;;;4989836;28;20039;-85
2022/09/08 10:45:36;;;;;;;7.20;1.88;;;17.10;99.90;;;;;;4971371;28;20445;-85
2022/09/08 10:48:19;;;;;;;3.83;1.50;;;17.20;99.90;;;;;;4990434;28;20870;-85
2022/09/08 10:51:02;;;;;;;2.90;1.90;;;17.20;99.90;;;;;;5005646;28;20042;-85
2022/09/08 10:54:08;;;;;;;2.03;1.60;;;17.10;99.90;;;;;;4989594;28;20039;-84
2022/09/08 10:56:37;;;;;;;2.65;1.88;;;17.30;99.90;;;;;;5006377;28;20034;-85
2022/09/08 10:59:47;;;;;;;3.60;1.50;;;17.50;99.90;;;;;;4973986;28;20034;-85
2022/09/08 11:02:51;;;;;;;4.95;1.63;;;18.70;99.90;;;;;;4986348;28;20031;-86
2022/09/08 11:05:49;;;;;;;4.50;1.88;;;19.00;99.90;;;;;;5000793;28;20030;-85
2022/09/08 11:08:52;;;;;;;4.65;1.50;;;18.50;99.90;;;;;;4975500;28;20072;-85
2022/09/08 11:11:50;;;;;;;4.45;1.20;;;18.30;99.90;;;;;;4992550;28;20080;-86
2022/09/08 11:14:27;;;;;;;1.88;1.13;;;18.70;99.90;;;;;;4990677;28;20027;-85
2022/09/08 11:17:14;;;;;;;4.30;1.40;;;18.70;99.90;;;;;;4990717;28;20102;-85
2022/09/08 11:20:02;;;;;;;1.48;1.38;;;18.70;99.90;;;;;;4975094;28;20697;-86
2022/09/08 11:23:05;;;;;;;5.43;1.50;;;19.60;99.90;;;;;;4969649;28;20386;-85
2022/09/08 11:25:48;;;;;;;1.80;1.45;;;20.70;99.90;;;;;;4970859;28;20034;-86
2022/09/08 11:28:43;;;;;;;2.90;1.30;;;21.30;99.90;;;;;;4987887;28;20061;-87
2022/09/08 11:31:18;;;;;;;3.17;1.10;;;21.30;99.90;;;;;;4974810;28;20064;-86
2022/09/08 11:34:11;;;;;;;11.10;1.50;;;21.00;99.90;;;;;;5001801;28;20505;-86
2022/09/08 11:36:58;;;;;;;1.30;1.20;;;20.50;99.90;;;;;;4992542;28;20038;-87
2022/09/08 11:39:45;;;;;;;2.95;1.10;;;20.00;99.90;;;;;;4976766;28;20031;-86
2022/09/08 11:42:33;;;;;;;2.10;1.20;;;19.30;99.90;;;;;;5017852;28;20389;-86
2022/09/08 11:45:16;;;;;;;3.78;1.50;;;18.80;99.90;;;;;;4994572;28;20496;-86
2022/09/08 11:48:07;;;;;;;2.00;1.45;;;19.20;99.90;;;;;;4992699;28;20038;-87
2022/09/08 11:50:57;;;;;;;5.00;1.52;;;19.40;99.90;;;;;;4994381;28;20034;-86
2022/09/08 11:53:38;;;;;;;1.95;1.20;;;19.20;99.90;;;;;;4999676;28;20034;-86
2022/09/08 11:56:18;;;;;;;6.40;2.17;;;18.70;99.90;;;;;;4976385;28;20030;-87
2022/09/08 11:58:50;;;;;;;2.65;1.33;;;18.60;99.90;;;;;;4998148;28;20042;-86
2022/09/08 12:01:24;;;;;;;2.08;1.60;;;18.50;99.90;;;;;;4978036;28;20073;-86
2022/09/08 12:04:03;;;;;;;2.17;1.48;;;18.60;99.90;;;;;;4974479;28;20030;-86
2022/09/08 12:06:42;;;;;;;2.60;1.40;;;18.80;99.90;;;;;;4978142;28;20038;-86
2022/09/08 12:09:32;;;;;;;2.60;1.50;;;19.10;99.90;;;;;;4967755;28;20033;-86
2022/09/08 12:12:23;;;;;;;2.63;1.20;;;19.40;99.90;;;;;;4985046;28;20062;-86
2022/09/08 12:15:28;;;;;;;1.93;1.03;;;19.70;99.90;;;;;;4995741;28;20092;-87
2022/09/08 12:18:08;;;;;;;1.80;1.20;;;20.30;99.90;;;;;;4982107;28;20038;-86
2022/09/08 12:21:15;;;;;;;1.70;1.20;;;20.10;99.90;;;;;;4990106;28;20560;-87
2022/09/08 12:24:24;;;;;;;1.30;0.90;;;20.60;99.90;;;;;;4998340;28;20070;-87
2022/09/08 12:26:55;;;;;;;3.97;1.48;;;20.40;99.90;;;;;;4996480;28;20037;-86
2022/09/08 12:29:39;;;;;;;1.97;1.10;;;20.00;99.90;;;;;;4991109;28;20042;-86
2022/09/08 12:32:43;;;;;;;2.47;1.08;;;20.30;99.90;;;;;;4979889;28;20030;-86
2022/09/08 12:35:32;;;;;;;3.03;1.13;;;20.20;99.90;;;;;;4977261;28;20046;-86
2022/09/08 12:38:32;;;;;;;2.22;1.33;;;20.10;99.90;;;;;;4975200;28;20065;-86
2022/09/08 12:41:19;;;;;;;2.20;1.10;;;20.00;99.90;;;;;;4975784;28;20441;-87
2022/09/08 12:43:44;;;;;;;5.85;1.42;;;19.70;99.90;;;;;;4974125;28;20038;-86
2022/09/08 12:46:24;;;;;;;4.63;1.42;;;19.50;99.90;;;;;;4993253;28;20045;-85
2022/09/08 12:48:55;;;;;;;3.35;1.23;;;19.70;99.90;;;;;;4989717;28;20022;-86
2022/09/08 12:51:35;;;;;;;6.60;1.40;;;19.70;99.90;;;;;;4976241;28;20476;-87
2022/09/08 12:54:11;;;;;;;3.28;1.35;;;19.50;99.90;;;;;;4991627;28;20129;-86
2022/09/08 12:56:39;;;;;;;3.45;1.20;;;19.50;99.90;;;;;;4971918;28;20089;-86
2022/09/08 12:59:29;;;;;;;5.82;1.35;;;19.40;99.90;;;;;;4992624;28;20022;-86
2022/09/08 13:02:29;;;;;;;4.57;1.10;;;19.50;99.90;;;;;;4992774;28;20058;-86
2022/09/08 13:05:30;;;;;;;5.53;1.23;;;19.70;99.90;;;;;;4992828;28;20041;-86
2022/09/08 13:08:04;;;;;;;9.05;1.23;;;20.20;99.90;;;;;;4992083;28;20435;-86
2022/09/08 13:10:35;;;;;;;2.00;0.80;;;20.30;99.90;;;;;;4993137;28;20092;-86
2022/09/08 13:13:40;;;;;;;3.80;1.27;;;20.40;99.90;;;;;;4992621;28;20034;-86
2022/09/08 13:16:31;;;;;;;3.03;1.20;;;20.60;99.90;;;;;;4975256;28;20109;-86
2022/09/08 13:19:24;;;;;;;4.90;0.95;;;20.90;99.90;;;;;;4992068;28;20034;-86
2022/09/08 13:22:09;;;;;;;2.28;1.00;;;20.90;99.90;;;;;;4976758;28;20031;-86
2022/09/08 13:24:59;;;;;;;2.38;1.05;;;20.60;99.90;;;;;;4972916;28;20036;-86
2022/09/08 13:28:00;;;;;;;6.53;1.30;;;20.30;99.90;;;;;;4992640;28;20046;-86
2022/09/08 13:30:34;;;;;;;;;;;20.10;99.90;;;;;;4970966;28;20390;-86
2022/09/08 13:33:08;;;;;;;5.45;1.50;;;20.10;99.90;;;;;;4991646;28;20369;-86
2022/09/08 13:35:57;;;;;;;4.55;1.25;;;20.00;99.90;;;;;;4992652;28;20069;-86
2022/09/08 13:38:48;;;;;;;3.25;1.10;;;20.00;99.90;;;;;;4971006;28;20058;-86
2022/09/08 13:41:47;;;;;;;4.53;1.00;;;19.90;99.90;;;;;;4972698;28;20030;-86
2022/09/08 13:44:16;;;;;;;3.13;1.30;;;19.50;99.90;;;;;;4992260;28;20026;-86
2022/09/08 13:47:19;;;;;;;2.72;1.05;;;19.40;99.90;;;;;;4989382;28;20045;-85